This is the latest recevied weather packets stored in our database for station/object KI5RKU-09. If no packets are shown the sender has not sent any weather packets the latest 10 day(s).
| Time | Temp. | Humidity | Pressure | Rain* | Wind** | Luminosity | Snow |
|---|---|---|---|---|---|---|---|
| 1777562728 | 16.67° C | 80% | 1016.4 hPa | 0 mm | - | 44 W/m² | - |
| 1777562140 | 16.67° C | 82% | 1016.1 hPa | 0 mm | - | 72 W/m² | - |
| 1777560345 | 16.11° C | 84% | 1015.7 hPa | 0 mm | - | 26 W/m² | - |
| 1777559128 | 15.56° C | 84% | 1015.3 hPa | 0 mm | - | 37 W/m² | - |
| 1777555525 | 15° C | 88% | 1015.2 hPa | 0 mm | - | 35 W/m² | - |
| 1777554327 | 15° C | 89% | 1014.9 hPa | 0 mm | - | 26 W/m² | - |
| 1777554049 | 15° C | 89% | 1015.2 hPa | 0 mm | - | 23 W/m² | - |
| 1777553137 | 15° C | 89% | 1015.1 hPa | 0 mm | - | 25 W/m² | - |
| 1777552249 | 14.44° C | 89% | 1015 hPa | 0 mm | - | 21 W/m² | - |
| 1777551628 | 14.44° C | 88% | 1015 hPa | 0 mm | - | 14 W/m² | - |
| 1777550442 | 14.44° C | 88% | 1014.7 hPa | 0 mm | - | 0 W/m² | - |
| 1777548928 | 14.44° C | 87% | 1014.5 hPa | 0 mm | - | 0 W/m² | - |
| 1777547428 | 14.44° C | 87% | 1014.7 hPa | 0 mm | - | 0 W/m² | - |
| 1777545940 | 15° C | 87% | 1014.8 hPa | 0 mm | - | 0 W/m² | - |
| 1777544725 | 15° C | 86% | 1014.8 hPa | 0 mm | - | 0 W/m² | - |
| 1777544428 | 15° C | 86% | 1014.9 hPa | 0 mm | - | 0 W/m² | - |
| 1777543528 | 15° C | 85% | 1014.8 hPa | 0 mm | - | 0 W/m² | - |
| 1777539929 | 15.56° C | 84% | 1014.8 hPa | 0 mm | - | 0 W/m² | - |
| 1777536987 | 16.11° C | 82% | 1014.7 hPa | 0 mm | - | 0 W/m² | - |
| 1777536328 | 16.11° C | 82% | 1014.7 hPa | 0 mm | - | 0 W/m² | - |
| 1777535142 | 16.67° C | 80% | 1014.5 hPa | 0 mm | - | 0 W/m² | - |
| 1777534529 | 16.67° C | 80% | 1014.7 hPa | 0 mm | - | 0 W/m² | - |
| 1777533933 | 16.67° C | 79% | 1014.9 hPa | 0 mm | - | 0 W/m² | - |
| 1777532729 | 16.67° C | 79% | 1015.2 hPa | 0 mm | - | 0 W/m² | - |
| 1777531228 | 17.22° C | 78% | 1015.5 hPa | 0 mm | - | 0 W/m² | - |
* Rain latest hour (hover to see other rain measurements)
** Current wind speed in m/s (hover to see current wind gust speed)